Time;durP1;ratioP1;P1;durP2;ratioP2;P2;SDS_P1;SDS_P2;PMS_P1;PMS_P2;Temp;Humidity;BMP_temperature;BMP_pressure;BME280_temperature;BME280_humidity;BME280_pressure;Samples;Min_cycle;Max_cycle;Signal;HPM_P1;HPM_P2
2021/03/13 00:01:14;;;;;;;4.90;1.23;;;8.80;99.90;;;;;;5035899;28;20045;-72
2021/03/13 00:03:40;;;;;;;5.15;1.50;;;8.80;99.90;;;;;;5036128;28;20072;-72
2021/03/13 00:06:07;;;;;;;5.47;1.30;;;8.80;99.90;;;;;;5036335;28;20049;-72
2021/03/13 00:08:35;;;;;;;10.05;1.98;;;8.80;99.90;;;;;;5036298;28;20122;-72
2021/03/13 00:11:01;;;;;;;6.13;1.50;;;8.70;99.90;;;;;;5035985;28;20041;-72
2021/03/13 00:13:27;;;;;;;5.25;1.48;;;8.70;99.90;;;;;;5035901;28;20034;-72
2021/03/13 00:15:53;;;;;;;5.53;1.52;;;8.70;99.90;;;;;;5035891;28;20048;-72
2021/03/13 00:18:19;;;;;;;7.82;2.25;;;8.70;99.90;;;;;;5036135;28;20053;-72
2021/03/13 00:20:45;;;;;;;5.05;1.58;;;8.70;99.90;;;;;;5036175;28;20427;-72
2021/03/13 00:23:11;;;;;;;7.25;1.70;;;8.60;99.90;;;;;;5036322;28;20132;-72
2021/03/13 00:25:38;;;;;;;5.95;1.48;;;8.60;99.90;;;;;;5036354;28;20472;-72
2021/03/13 00:28:05;;;;;;;13.27;1.65;;;8.60;99.90;;;;;;5036233;28;20045;-72
2021/03/13 00:30:37;;;;;;;7.18;1.77;;;8.50;99.90;;;;;;5035522;28;20037;-72
2021/03/13 00:33:14;;;;;;;9.77;1.50;;;8.60;99.90;;;;;;5035603;28;20041;-72
2021/03/13 00:35:41;;;;;;;6.32;1.52;;;8.50;99.90;;;;;;5035862;28;20045;-72
2021/03/13 00:38:07;;;;;;;5.32;1.30;;;8.60;99.90;;;;;;5035458;28;20041;-72
2021/03/13 00:40:35;;;;;;;6.03;1.83;;;8.60;99.90;;;;;;5035435;28;20033;-72
2021/03/13 00:43:03;;;;;;;6.40;1.48;;;8.60;99.90;;;;;;5035545;28;20041;-72
2021/03/13 00:45:29;;;;;;;7.20;1.63;;;8.60;99.90;;;;;;5035685;28;20045;-72
2021/03/13 00:47:57;;;;;;;3.78;1.10;;;8.60;99.90;;;;;;5035669;28;20046;-72
2021/03/13 00:50:26;;;;;;;10.30;1.40;;;8.60;99.90;;;;;;5035528;28;20038;-72
2021/03/13 00:52:52;;;;;;;9.45;2.08;;;8.60;99.90;;;;;;5035161;28;20044;-72
2021/03/13 00:55:19;;;;;;;7.18;1.65;;;8.50;99.90;;;;;;5035108;28;20044;-72
2021/03/13 00:57:45;;;;;;;6.40;1.52;;;8.60;99.90;;;;;;5035426;28;20045;-72
2021/03/13 01:00:14;;;;;;;4.35;1.30;;;8.50;99.90;;;;;;5035083;28;20037;-72
2021/03/13 01:02:40;;;;;;;6.20;1.40;;;8.50;99.90;;;;;;5035058;28;20044;-72
2021/03/13 01:05:08;;;;;;;5.00;1.27;;;8.40;99.90;;;;;;5035323;28;20041;-72
2021/03/13 01:07:35;;;;;;;6.47;1.15;;;8.40;99.90;;;;;;5035880;28;20037;-72
2021/03/13 01:10:05;;;;;;;7.72;1.40;;;8.40;99.90;;;;;;5035115;28;20056;-72
2021/03/13 01:12:31;;;;;;;7.43;1.80;;;8.30;99.90;;;;;;5034764;28;20076;-72
2021/03/13 01:14:57;;;;;;;9.52;1.45;;;8.30;99.90;;;;;;5035374;28;20388;-72
2021/03/13 01:17:22;;;;;;;7.35;1.23;;;8.20;99.90;;;;;;5034542;28;20091;-72
2021/03/13 01:19:48;;;;;;;7.05;1.30;;;8.30;99.90;;;;;;5034846;28;20029;-72
2021/03/13 01:22:14;;;;;;;8.15;1.48;;;8.30;99.90;;;;;;5016932;28;20524;-72
2021/03/13 01:24:41;;;;;;;7.45;1.20;;;8.20;99.90;;;;;;5033390;28;20045;-72
2021/03/13 01:27:08;;;;;;;7.35;1.40;;;8.20;99.90;;;;;;5034758;28;20087;-72
2021/03/13 01:29:34;;;;;;;13.18;1.75;;;8.20;99.90;;;;;;5034182;28;20566;-72
2021/03/13 01:32:03;;;;;;;6.53;1.33;;;8.20;99.90;;;;;;5034577;28;20041;-72
2021/03/13 01:34:30;;;;;;;5.70;1.40;;;8.10;99.90;;;;;;5034214;28;20500;-72
2021/03/13 01:36:57;;;;;;;4.70;1.05;;;8.00;99.90;;;;;;5034140;28;20037;-72
2021/03/13 01:39:23;;;;;;;9.48;1.20;;;8.00;99.90;;;;;;5034789;28;20049;-72
2021/03/13 01:41:48;;;;;;;6.10;1.23;;;7.90;99.90;;;;;;5034497;28;20511;-72
2021/03/13 01:44:14;;;;;;;7.22;1.50;;;7.90;99.90;;;;;;5034025;28;20068;-72
2021/03/13 01:46:40;;;;;;;10.02;1.80;;;7.90;99.90;;;;;;5034372;28;20140;-72
2021/03/13 01:49:09;;;;;;;9.05;1.88;;;7.90;99.90;;;;;;5034495;28;20477;-72
2021/03/13 01:51:35;;;;;;;13.57;2.20;;;7.90;99.90;;;;;;5034088;28;20037;-72
2021/03/13 01:54:01;;;;;;;7.05;1.90;;;7.80;99.90;;;;;;5034050;28;20049;-72
2021/03/13 01:56:27;;;;;;;10.13;1.58;;;7.70;99.90;;;;;;5034334;28;20038;-72
2021/03/13 01:58:54;;;;;;;11.35;1.73;;;7.70;99.90;;;;;;5034212;28;20052;-72
2021/03/13 02:01:20;;;;;;;6.45;1.35;;;7.60;99.90;;;;;;5034294;28;20041;-72
2021/03/13 02:03:46;;;;;;;3.28;1.20;;;7.50;99.90;;;;;;5034027;28;20068;-72
2021/03/13 02:06:12;;;;;;;9.93;1.80;;;7.50;99.90;;;;;;5033891;28;20049;-72
2021/03/13 02:08:59;;;;;;;4.88;1.20;;;7.40;99.90;;;;;;5034854;28;20120;-72
2021/03/13 02:11:35;;;;;;;7.00;1.70;;;7.30;99.90;;;;;;5016728;28;20511;-72
2021/03/13 02:14:16;;;;;;;10.60;1.60;;;7.20;99.90;;;;;;5034239;28;20069;-72
2021/03/13 02:16:47;;;;;;;11.10;2.00;;;7.30;99.90;;;;;;5033368;28;20201;-72
2021/03/13 02:19:41;;;;;;;10.00;2.70;;;7.30;99.90;;;;;;5034510;28;20095;-72
2021/03/13 02:22:09;;;;;;;12.23;1.77;;;7.10;99.90;;;;;;5035153;28;20037;-72
2021/03/13 02:24:58;;;;;;;11.00;1.15;;;7.10;99.90;;;;;;5038008;28;20079;-72
2021/03/13 02:27:40;;;;;;;11.88;1.33;;;7.20;99.90;;;;;;5037867;28;20045;-72
2021/03/13 02:30:20;;;;;;;9.05;1.73;;;7.30;99.90;;;;;;5037823;28;20025;-72
2021/03/13 02:32:55;;;;;;;7.57;1.35;;;7.30;99.90;;;;;;5038218;28;20087;-72
2021/03/13 02:35:28;;;;;;;4.93;1.33;;;7.30;99.90;;;;;;5037909;28;20069;-72
2021/03/13 02:38:00;;;;;;;8.43;1.20;;;7.20;99.90;;;;;;5038232;28;20041;-72
2021/03/13 02:40:28;;;;;;;8.45;1.92;;;7.30;99.90;;;;;;5038031;28;20124;-72
2021/03/13 02:43:00;;;;;;;7.78;1.48;;;7.50;99.90;;;;;;5037196;28;20045;-72
2021/03/13 02:45:29;;;;;;;12.18;1.70;;;7.50;99.90;;;;;;5036992;28;20041;-72
2021/03/13 02:47:57;;;;;;;10.10;1.48;;;7.50;99.90;;;;;;5019583;28;20052;-72
2021/03/13 02:50:25;;;;;;;6.80;1.30;;;7.40;99.90;;;;;;5037719;28;20556;-72
2021/03/13 02:52:54;;;;;;;9.25;1.38;;;7.50;99.90;;;;;;5037765;28;20122;-72
2021/03/13 02:55:21;;;;;;;8.45;1.52;;;7.40;99.90;;;;;;5037059;28;20070;-72
2021/03/13 02:57:49;;;;;;;8.02;1.50;;;7.40;99.90;;;;;;5037240;28;20087;-72
2021/03/13 03:00:19;;;;;;;8.65;1.25;;;7.40;99.90;;;;;;5037288;28;20037;-72
2021/03/13 03:02:50;;;;;;;8.30;1.73;;;7.40;99.90;;;;;;5037161;28;20033;-72
2021/03/13 03:05:17;;;;;;;11.80;1.55;;;7.30;99.90;;;;;;5036073;28;20409;-72
2021/03/13 03:07:45;;;;;;;5.55;1.83;;;7.30;99.90;;;;;;5029576;28;20042;-72
2021/03/13 03:10:13;;;;;;;8.40;1.30;;;7.30;99.90;;;;;;5035778;28;20038;-72
2021/03/13 03:12:42;;;;;;;8.88;1.63;;;7.30;99.90;;;;;;5035174;28;20239;-72
2021/03/13 03:15:10;;;;;;;6.38;1.75;;;7.20;99.90;;;;;;5036843;28;20044;-72
2021/03/13 03:17:38;;;;;;;11.00;1.77;;;7.20;99.90;;;;;;5037327;28;20077;-72
2021/03/13 03:20:09;;;;;;;7.03;1.55;;;7.20;99.90;;;;;;5037605;28;20045;-72
2021/03/13 03:22:36;;;;;;;8.93;2.13;;;7.10;99.90;;;;;;5037544;28;20041;-72
2021/03/13 03:25:04;;;;;;;7.20;2.65;;;7.10;99.90;;;;;;5036844;28;20033;-72
2021/03/13 03:27:29;;;;;;;10.55;2.20;;;7.10;99.90;;;;;;5037040;28;20045;-72
2021/03/13 03:29:56;;;;;;;6.97;2.15;;;7.00;99.90;;;;;;5037084;28;20171;-72
2021/03/13 03:32:22;;;;;;;13.25;3.28;;;6.90;99.90;;;;;;5037084;28;20037;-72
2021/03/13 03:34:48;;;;;;;8.35;2.42;;;6.80;99.90;;;;;;5036283;28;20041;-72
2021/03/13 03:37:14;;;;;;;12.75;2.30;;;6.80;99.90;;;;;;5036699;28;20041;-72
2021/03/13 03:39:40;;;;;;;10.13;1.80;;;6.70;99.90;;;;;;5036966;28;20042;-72
2021/03/13 03:42:06;;;;;;;9.75;1.60;;;6.70;99.90;;;;;;5036677;28;20042;-72
2021/03/13 03:44:42;;;;;;;7.45;1.30;;;6.70;99.90;;;;;;5036372;28;20041;-72
2021/03/13 03:47:10;;;;;;;5.57;1.48;;;6.70;99.90;;;;;;5036413;28;20045;-72
2021/03/13 03:49:39;;;;;;;9.98;1.58;;;6.60;99.90;;;;;;5036484;28;20440;-72
2021/03/13 03:52:06;;;;;;;10.75;1.70;;;6.50;99.90;;;;;;5036481;28;20112;-72
2021/03/13 03:54:36;;;;;;;9.48;2.10;;;6.40;99.90;;;;;;5036414;28;20072;-72
2021/03/13 03:57:06;;;;;;;8.02;1.90;;;6.30;99.90;;;;;;5036745;28;20052;-72
2021/03/13 03:59:33;;;;;;;11.70;2.17;;;6.20;99.90;;;;;;5035078;28;20408;-72
2021/03/13 04:02:00;;;;;;;10.75;1.77;;;6.20;99.90;;;;;;5036495;28;20045;-72
2021/03/13 04:04:29;;;;;;;9.30;2.00;;;6.20;99.90;;;;;;5036211;28;20079;-72
2021/03/13 04:06:57;;;;;;;8.82;1.80;;;6.10;99.90;;;;;;5035203;28;20373;-72
2021/03/13 04:09:26;;;;;;;10.77;2.30;;;6.20;99.90;;;;;;5036411;28;20095;-72
2021/03/13 04:11:53;;;;;;;7.75;1.55;;;6.10;99.90;;;;;;5036365;28;20087;-72
2021/03/13 04:14:19;;;;;;;6.43;1.63;;;6.10;99.90;;;;;;5036126;28;20072;-72
2021/03/13 04:16:46;;;;;;;10.20;1.98;;;6.00;99.90;;;;;;5035721;28;20037;-72
2021/03/13 04:19:13;;;;;;;13.00;2.95;;;6.10;99.90;;;;;;5035921;28;20037;-72
2021/03/13 04:21:40;;;;;;;10.02;2.10;;;6.00;99.90;;;;;;5035752;28;20041;-72
2021/03/13 04:24:08;;;;;;;9.40;2.05;;;6.00;99.90;;;;;;5035539;28;20037;-72
2021/03/13 04:26:36;;;;;;;5.07;1.35;;;5.90;99.90;;;;;;5035582;28;20076;-72
2021/03/13 04:29:02;;;;;;;5.95;1.42;;;5.80;99.90;;;;;;5035867;28;20041;-72
2021/03/13 04:31:31;;;;;;;6.35;1.48;;;5.70;99.90;;;;;;5035659;28;20504;-72
2021/03/13 04:34:00;;;;;;;6.88;1.63;;;5.60;99.90;;;;;;5035563;28;20091;-72
2021/03/13 04:36:28;;;;;;;10.25;2.08;;;5.60;99.90;;;;;;5035780;28;20045;-72
2021/03/13 04:38:56;;;;;;;9.50;1.73;;;5.50;99.90;;;;;;5034922;28;20128;-72
2021/03/13 04:41:23;;;;;;;12.60;1.75;;;5.50;99.90;;;;;;5017825;28;20041;-72
2021/03/13 04:43:50;;;;;;;8.93;1.90;;;5.50;99.90;;;;;;5034960;28;20037;-72
2021/03/13 04:46:16;;;;;;;8.70;1.85;;;5.50;99.90;;;;;;5035061;28;20052;-72
2021/03/13 04:48:43;;;;;;;9.68;1.60;;;5.60;99.90;;;;;;5035393;28;20041;-72
2021/03/13 04:51:10;;;;;;;6.32;1.50;;;5.50;99.90;;;;;;5035283;28;20083;-72
2021/03/13 04:53:36;;;;;;;6.05;1.38;;;5.50;99.90;;;;;;5035173;28;20064;-72
2021/03/13 04:56:03;;;;;;;9.88;1.83;;;5.40;99.90;;;;;;5034922;28;20073;-72
2021/03/13 04:58:29;;;;;;;5.90;1.40;;;5.30;99.90;;;;;;5035293;28;20033;-72
2021/03/13 05:00:56;;;;;;;5.25;1.50;;;5.30;99.90;;;;;;5034733;28;20065;-72
2021/03/13 05:03:22;;;;;;;8.10;1.90;;;5.30;99.90;;;;;;5034768;28;20037;-72
2021/03/13 05:05:47;;;;;;;8.65;1.48;;;5.20;99.90;;;;;;5034964;28;20071;-72
2021/03/13 05:08:13;;;;;;;8.50;1.52;;;5.10;99.90;;;;;;5034879;28;20069;-72
2021/03/13 05:10:39;;;;;;;5.57;1.38;;;5.10;99.90;;;;;;5034739;28;20171;-72
2021/03/13 05:13:05;;;;;;;5.55;1.10;;;5.20;99.90;;;;;;5035103;28;20064;-72
2021/03/13 05:15:31;;;;;;;6.60;1.60;;;5.20;99.90;;;;;;5034877;28;20079;-72
2021/03/13 05:17:57;;;;;;;9.43;1.80;;;5.10;99.90;;;;;;5034829;28;20056;-72
2021/03/13 05:20:23;;;;;;;9.30;1.60;;;5.10;99.90;;;;;;5034836;28;20038;-72
2021/03/13 05:22:49;;;;;;;6.20;1.65;;;5.10;99.90;;;;;;5035077;28;20552;-72
2021/03/13 05:25:16;;;;;;;11.23;4.25;;;5.10;99.90;;;;;;5034658;28;20056;-72
2021/03/13 05:27:42;;;;;;;8.73;1.70;;;5.10;99.90;;;;;;5035342;28;20069;-72
2021/03/13 05:30:10;;;;;;;4.00;1.27;;;5.00;99.90;;;;;;5034918;28;20124;-72
2021/03/13 05:32:36;;;;;;;8.77;1.40;;;5.00;99.90;;;;;;5035288;28;20041;-72
2021/03/13 05:35:04;;;;;;;8.50;1.40;;;5.00;99.90;;;;;;5034588;28;20120;-72
2021/03/13 05:37:30;;;;;;;8.55;1.90;;;5.10;99.90;;;;;;5034648;28;20053;-72
2021/03/13 05:39:56;;;;;;;11.10;1.90;;;5.00;99.90;;;;;;5034444;28;20036;-72
2021/03/13 05:42:23;;;;;;;9.02;2.10;;;5.20;99.90;;;;;;5034377;28;20053;-72
2021/03/13 05:44:51;;;;;;;6.43;1.30;;;5.10;99.90;;;;;;5034879;28;20038;-72
2021/03/13 05:47:20;;;;;;;4.30;1.55;;;5.10;99.90;;;;;;5034637;28;20041;-72
2021/03/13 05:49:55;;;;;;;5.85;1.35;;;5.10;99.90;;;;;;5034418;28;20149;-72
2021/03/13 05:52:23;;;;;;;4.13;1.42;;;5.20;99.90;;;;;;5034484;28;20500;-72
2021/03/13 05:54:52;;;;;;;2.60;1.00;;;5.10;99.90;;;;;;5034689;28;20041;-72
2021/03/13 05:57:18;;;;;;;6.38;1.23;;;5.10;99.90;;;;;;5017499;28;20056;-72
2021/03/13 05:59:44;;;;;;;7.70;1.63;;;5.10;99.90;;;;;;5038821;28;20071;-72
2021/03/13 06:02:10;;;;;;;10.95;1.40;;;5.00;99.90;;;;;;5038756;28;20045;-72
2021/03/13 06:04:36;;;;;;;5.35;1.30;;;5.00;99.90;;;;;;5038995;28;20049;-72
2021/03/13 06:07:02;;;;;;;9.82;1.75;;;4.90;99.90;;;;;;5038361;28;20489;-72
2021/03/13 06:09:28;;;;;;;5.47;2.00;;;5.00;99.90;;;;;;5038636;28;20057;-72
2021/03/13 06:11:54;;;;;;;8.50;1.50;;;4.80;99.90;;;;;;5038322;28;20099;-72
2021/03/13 06:14:19;;;;;;;7.50;1.55;;;4.80;99.90;;;;;;5038095;28;20045;-72
2021/03/13 06:16:46;;;;;;;10.13;1.27;;;4.70;99.90;;;;;;5037955;28;20493;-72
2021/03/13 06:19:13;;;;;;;15.95;6.22;;;4.50;99.90;;;;;;5020878;28;20091;-72
2021/03/13 06:21:40;;;;;;;10.40;3.53;;;4.50;99.90;;;;;;5038115;28;20072;-72
2021/03/13 06:24:23;;;;;;;18.27;7.85;;;4.60;99.90;;;;;;5037779;28;20044;-72
2021/03/13 06:27:01;;;;;;;10.23;4.70;;;4.50;99.90;;;;;;5037777;28;20041;-72
2021/03/13 06:29:28;;;;;;;12.35;4.50;;;4.50;99.90;;;;;;5038426;28;20065;-72
2021/03/13 06:32:32;;;;;;;9.70;3.67;;;4.70;99.90;;;;;;5037972;28;20041;-72
2021/03/13 06:35:28;;;;;;;8.02;3.22;;;4.60;99.90;;;;;;5025200;28;20045;-72
2021/03/13 06:37:57;;;;;;;3.45;1.65;;;4.70;99.90;;;;;;5037677;28;20125;-72
2021/03/13 06:40:34;;;;;;;10.23;2.92;;;4.80;99.90;;;;;;5038201;28;20084;-72
2021/03/13 06:43:16;;;;;;;10.15;2.63;;;4.80;99.90;;;;;;5038031;28;20072;-72
2021/03/13 06:45:55;;;;;;;5.95;2.10;;;4.70;99.90;;;;;;5037353;28;20045;-72
2021/03/13 06:48:34;;;;;;;6.75;1.95;;;4.60;99.90;;;;;;5037971;28;20067;-72
2021/03/13 06:51:17;;;;;;;7.53;1.85;;;4.70;99.90;;;;;;5037250;28;20033;-72
2021/03/13 06:53:44;;;;;;;6.72;1.85;;;4.60;99.90;;;;;;5037510;28;20048;-72
2021/03/13 06:56:11;;;;;;;6.25;1.77;;;4.60;99.90;;;;;;5037630;28;20045;-72
2021/03/13 06:58:38;;;;;;;5.80;1.40;;;4.60;99.90;;;;;;5037317;28;20064;-72
2021/03/13 07:01:06;;;;;;;8.05;1.67;;;4.70;99.90;;;;;;5037405;28;20048;-72
2021/03/13 07:03:32;;;;;;;6.60;2.15;;;4.80;99.90;;;;;;5037245;28;20545;-72
2021/03/13 07:05:59;;;;;;;5.57;1.42;;;4.80;99.90;;;;;;5037148;28;20079;-72
2021/03/13 07:08:30;;;;;;;5.53;1.40;;;5.00;99.90;;;;;;5036746;28;20077;-72
2021/03/13 07:11:11;;;;;;;4.47;1.20;;;5.20;99.90;;;;;;5037214;28;20036;-72
2021/03/13 07:13:39;;;;;;;6.30;1.52;;;5.40;99.90;;;;;;5036953;28;20041;-72
2021/03/13 07:16:24;;;;;;;5.85;1.80;;;5.90;99.90;;;;;;5036834;28;20072;-72
2021/03/13 07:18:51;;;;;;;7.70;1.27;;;6.00;99.90;;;;;;5037410;28;20066;-72
2021/03/13 07:21:18;;;;;;;5.88;1.48;;;6.40;99.90;;;;;;5037317;28;20508;-72
2021/03/13 07:23:53;;;;;;;6.50;1.35;;;7.00;99.90;;;;;;5036830;28;20120;-73
2021/03/13 07:26:19;;;;;;;8.98;1.08;;;7.40;99.90;;;;;;5035874;28;20053;-72
2021/03/13 07:28:48;;;;;;;3.67;0.90;;;7.70;99.90;;;;;;5035823;28;20045;-72
2021/03/13 07:31:18;;;;;;;5.72;1.15;;;7.80;99.90;;;;;;5036622;28;20115;-72
2021/03/13 07:33:47;;;;;;;6.40;1.10;;;7.70;99.90;;;;;;5036410;28;20033;-72
2021/03/13 07:36:17;;;;;;;5.70;0.95;;;7.70;99.90;;;;;;5035510;28;20041;-72
2021/03/13 07:38:45;;;;;;;6.35;1.17;;;7.60;99.90;;;;;;5035707;28;20039;-72
2021/03/13 07:41:16;;;;;;;3.83;0.95;;;7.60;99.90;;;;;;5036714;28;20048;-72
2021/03/13 07:43:43;;;;;;;5.68;1.33;;;7.70;99.90;;;;;;5036305;28;20048;-72
2021/03/13 07:46:11;;;;;;;6.93;1.20;;;7.70;99.90;;;;;;5035090;28;20053;-72
2021/03/13 07:48:38;;;;;;;3.85;1.10;;;7.80;99.90;;;;;;5035858;28;20041;-72
2021/03/13 07:51:07;;;;;;;5.88;0.93;;;7.80;99.90;;;;;;5036501;28;20128;-72
2021/03/13 07:53:42;;;;;;;3.70;1.13;;;7.90;99.90;;;;;;5036441;28;20514;-72
2021/03/13 07:56:12;;;;;;;3.10;0.90;;;7.90;99.90;;;;;;5036848;28;20037;-72
2021/03/13 07:58:39;;;;;;;4.70;1.20;;;8.00;99.90;;;;;;5036404;28;20060;-72
2021/03/13 08:01:06;;;;;;;5.53;1.17;;;8.00;99.90;;;;;;5036410;28;20488;-72
2021/03/13 08:03:37;;;;;;;5.90;1.00;;;8.10;99.90;;;;;;5036136;28;20126;-73
2021/03/13 08:06:11;;;;;;;5.85;1.13;;;8.10;99.90;;;;;;5036518;28;20042;-73
2021/03/13 08:08:50;;;;;;;4.05;0.90;;;8.20;99.90;;;;;;5035158;28;20040;-72
2021/03/13 08:11:27;;;;;;;4.15;0.90;;;8.30;99.90;;;;;;5035816;28;20030;-72
2021/03/13 08:13:53;;;;;;;3.70;0.90;;;8.30;99.90;;;;;;5035226;28;20045;-76
2021/03/13 08:16:37;;;;;;;2.78;1.00;;;8.50;99.90;;;;;;5017884;28;20043;-74
2021/03/13 08:19:04;;;;;;;2.83;0.98;;;8.60;99.90;;;;;;5036424;28;20057;-73
2021/03/13 08:21:35;;;;;;;4.95;1.35;;;8.60;99.90;;;;;;5034049;28;20068;-73
2021/03/13 08:24:02;;;;;;;4.30;0.85;;;8.80;99.90;;;;;;5035760;28;20033;-74
2021/03/13 08:26:40;;;;;;;3.35;0.65;;;8.90;99.90;;;;;;5034020;28;20147;-74
2021/03/13 08:29:09;;;;;;;4.50;1.10;;;9.10;99.90;;;;;;5035269;28;20044;-74
2021/03/13 08:31:37;;;;;;;2.67;0.82;;;9.30;99.90;;;;;;5035842;28;20072;-73
2021/03/13 08:34:06;;;;;;;4.40;1.20;;;9.40;99.90;;;;;;5035519;28;20037;-73
2021/03/13 08:36:49;;;;;;;6.82;0.85;;;9.80;99.90;;;;;;5035686;28;20045;-73
2021/03/13 08:39:20;;;;;;;5.65;1.10;;;10.00;98.60;;;;;;5035867;28;20114;-74
2021/03/13 08:41:54;;;;;;;2.90;0.75;;;10.20;96.30;;;;;;5035545;28;20037;-73
2021/03/13 08:44:25;;;;;;;4.07;1.20;;;10.40;95.70;;;;;;5035374;28;20076;-72
2021/03/13 08:47:08;;;;;;;4.32;1.05;;;10.90;94.70;;;;;;5035147;28;20049;-73
2021/03/13 08:49:44;;;;;;;3.20;1.17;;;10.90;92.60;;;;;;5035745;28;20578;-73
2021/03/13 08:52:10;;;;;;;5.07;1.17;;;11.20;91.90;;;;;;5035345;28;20041;-73
2021/03/13 08:54:39;;;;;;;3.03;0.50;;;11.30;91.00;;;;;;5035372;28;20036;-73
2021/03/13 08:57:08;;;;;;;5.82;1.00;;;11.30;89.80;;;;;;5035830;28;20065;-73
2021/03/13 08:59:35;;;;;;;4.47;1.00;;;11.20;89.50;;;;;;5035273;28;20044;-74
2021/03/13 09:02:06;;;;;;;4.75;1.17;;;11.30;90.20;;;;;;5035733;28;20091;-74
2021/03/13 09:04:34;;;;;;;6.25;1.15;;;11.50;90.50;;;;;;5035293;28;20033;-73
2021/03/13 09:07:01;;;;;;;2.22;0.70;;;11.60;88.70;;;;;;5034825;28;20045;-76
2021/03/13 09:09:29;;;;;;;3.38;0.95;;;11.40;86.70;;;;;;5035312;28;20099;-77
2021/03/13 09:11:58;;;;;;;3.55;0.73;;;11.20;88.50;;;;;;5035572;28;20052;-77
2021/03/13 09:14:25;;;;;;;6.00;0.95;;;11.30;89.90;;;;;;5034850;28;20399;-76
2021/03/13 09:16:51;;;;;;;3.33;0.85;;;11.70;91.00;;;;;;5020974;28;20052;-76
2021/03/13 09:19:19;;;;;;;3.90;0.90;;;11.30;90.90;;;;;;5033392;28;20079;-76
2021/03/13 09:21:49;;;;;;;5.82;1.13;;;10.80;91.60;;;;;;5038056;28;20033;-75
2021/03/13 09:24:27;;;;;;;5.95;1.27;;;11.00;93.40;;;;;;5048108;28;20579;-76
2021/03/13 09:26:55;;;;;;;4.30;1.00;;;11.20;92.30;;;;;;5031074;28;20103;-75
2021/03/13 09:29:29;;;;;;;4.03;1.00;;;11.30;91.60;;;;;;5032459;28;20049;-75
2021/03/13 09:32:00;;;;;;;8.73;1.23;;;11.40;90.90;;;;;;5032296;28;20535;-76
2021/03/13 09:34:26;;;;;;;3.33;1.00;;;11.20;91.10;;;;;;5034757;28;20055;-77
2021/03/13 09:36:52;;;;;;;4.97;1.10;;;11.20;91.80;;;;;;5033301;28;20045;-75
2021/03/13 09:39:26;;;;;;;8.45;1.95;;;11.10;91.90;;;;;;5032984;28;20079;-76
2021/03/13 09:42:09;;;;;;;5.47;1.15;;;11.10;92.60;;;;;;5033157;28;20124;-76
2021/03/13 09:44:42;;;;;;;2.53;1.00;;;11.00;92.60;;;;;;5033043;28;20488;-75
2021/03/13 09:47:17;;;;;;;5.30;1.15;;;10.80;93.10;;;;;;5032563;28;20053;-75
2021/03/13 09:49:56;;;;;;;3.17;1.00;;;10.80;95.60;;;;;;5022595;28;20084;-75
2021/03/13 09:52:33;;;;;;;4.07;0.90;;;10.70;93.90;;;;;;5029895;28;20033;-75
2021/03/13 09:55:11;;;;;;;23.33;13.10;;;10.70;94.40;;;;;;5030196;28;20512;-75
2021/03/13 09:57:39;;;;;;;8.30;1.40;;;10.80;96.00;;;;;;5031002;28;20344;-75
2021/03/13 10:00:30;;;;;;;8.00;1.40;;;10.90;94.60;;;;;;5032463;28;20121;-75
2021/03/13 10:02:58;;;;;;;6.03;1.20;;;11.00;95.40;;;;;;5029228;28;20045;-75
2021/03/13 10:05:27;;;;;;;6.65;1.38;;;10.90;93.30;;;;;;5031051;28;20088;-75
2021/03/13 10:07:54;;;;;;;10.52;1.38;;;10.70;94.70;;;;;;5032277;28;20033;-75
2021/03/13 10:10:22;;;;;;;7.25;1.30;;;10.60;95.60;;;;;;5036452;28;20044;-74
2021/03/13 10:12:51;;;;;;;4.72;1.30;;;10.70;96.30;;;;;;5037974;28;20034;-74
2021/03/13 10:15:30;;;;;;;6.63;1.00;;;10.70;94.80;;;;;;5031781;28;20048;-74
2021/03/13 10:17:57;;;;;;;6.60;1.55;;;10.80;95.70;;;;;;5010980;28;20062;-74
2021/03/13 10:20:26;;;;;;;2.33;0.90;;;10.80;97.60;;;;;;5012127;28;20096;-75
2021/03/13 10:22:54;;;;;;;5.78;1.20;;;10.90;95.60;;;;;;4986582;28;20501;-75
2021/03/13 10:25:20;;;;;;;6.18;1.23;;;10.90;96.00;;;;;;5029020;28;20038;-75
2021/03/13 10:27:46;;;;;;;3.30;1.10;;;10.90;93.10;;;;;;5031570;28;20042;-75
2021/03/13 10:30:13;;;;;;;7.07;0.93;;;10.90;92.40;;;;;;5031042;28;20129;-74
2021/03/13 10:32:40;;;;;;;6.15;1.70;;;10.90;92.10;;;;;;5030448;28;20037;-75
2021/03/13 10:35:08;;;;;;;5.57;2.00;;;10.90;91.40;;;;;;5030959;28;20103;-74
2021/03/13 10:37:42;;;;;;;7.20;1.55;;;10.90;91.10;;;;;;5031405;28;20033;-74
2021/03/13 10:40:37;;;;;;;6.60;1.60;;;11.00;91.70;;;;;;5032395;28;20500;-74
2021/03/13 10:43:13;;;;;;;4.95;1.77;;;11.00;91.70;;;;;;5032838;28;20516;-74
2021/03/13 10:45:41;;;;;;;4.80;1.75;;;11.10;92.00;;;;;;5035041;28;20057;-75
2021/03/13 10:48:09;;;;;;;4.30;1.00;;;11.20;91.30;;;;;;5034282;28;20040;-75
2021/03/13 10:50:37;;;;;;;2.33;1.13;;;11.10;90.40;;;;;;5035008;28;20064;-74
2021/03/13 10:53:36;;;;;;;4.22;1.25;;;11.10;90.40;;;;;;5033905;28;20029;-75
2021/03/13 10:56:05;;;;;;;7.38;2.33;;;11.30;89.40;;;;;;5035477;28;20065;-75
2021/03/13 10:58:45;;;;;;;5.30;1.55;;;11.30;89.50;;;;;;5034854;28;20049;-75
2021/03/13 11:01:11;;;;;;;5.43;1.50;;;11.60;88.10;;;;;;5036112;28;20095;-75
2021/03/13 11:03:38;;;;;;;4.43;1.45;;;11.60;80.70;;;;;;5036700;28;20264;-75
2021/03/13 11:06:04;;;;;;;5.43;1.67;;;11.50;80.70;;;;;;5036463;28;20081;-75
2021/03/13 11:08:30;;;;;;;6.53;1.55;;;11.60;81.50;;;;;;5037071;28;20049;-75
2021/03/13 11:10:57;;;;;;;6.90;1.60;;;11.60;81.10;;;;;;5036744;28;20041;-75
2021/03/13 11:13:24;;;;;;;4.25;1.63;;;11.60;80.80;;;;;;5035994;28;20116;-75
2021/03/13 11:15:50;;;;;;;6.32;1.73;;;11.70;82.00;;;;;;5036014;28;20060;-76
2021/03/13 11:18:16;;;;;;;2.65;1.80;;;11.90;81.10;;;;;;5050594;28;20516;-75
2021/03/13 11:20:43;;;;;;;7.43;1.98;;;12.20;78.50;;;;;;5055885;28;20043;-75
2021/03/13 11:23:10;;;;;;;5.40;2.13;;;12.20;78.50;;;;;;5055768;28;20040;-75
2021/03/13 11:25:36;;;;;;;4.70;1.88;;;12.30;76.90;;;;;;5054638;28;20151;-75
2021/03/13 11:28:02;;;;;;;5.38;1.83;;;12.40;75.60;;;;;;5055280;28;20520;-76
2021/03/13 11:30:29;;;;;;;7.00;1.98;;;12.50;75.20;;;;;;5054746;28;20033;-77
2021/03/13 11:32:54;;;;;;;8.38;2.63;;;12.40;77.20;;;;;;5055649;28;20054;-76
2021/03/13 11:35:22;;;;;;;8.73;2.10;;;12.30;78.00;;;;;;5055427;28;20037;-76
2021/03/13 11:37:50;;;;;;;3.60;1.77;;;12.10;77.10;;;;;;5055992;28;20036;-76
2021/03/13 11:40:17;;;;;;;6.15;1.52;;;12.00;77.60;;;;;;5055070;28;20168;-75
2021/03/13 11:42:44;;;;;;;3.85;1.65;;;11.80;77.50;;;;;;5055389;28;20610;-76
2021/03/13 11:45:13;;;;;;;4.22;1.73;;;11.90;75.90;;;;;;5055528;28;20037;-76
2021/03/13 11:47:39;;;;;;;4.93;1.40;;;12.00;73.30;;;;;;5055003;28;20071;-75
2021/03/13 11:50:08;;;;;;;3.55;1.73;;;12.20;74.80;;;;;;5055392;28;20033;-75
2021/03/13 11:52:34;;;;;;;6.60;1.90;;;12.30;71.60;;;;;;5055315;28;20099;-75
2021/03/13 11:55:00;;;;;;;5.15;1.40;;;12.40;71.20;;;;;;5054324;28;20048;-75
2021/03/13 11:57:26;;;;;;;3.30;1.35;;;12.70;73.60;;;;;;5055133;28;20095;-75
2021/03/13 11:59:52;;;;;;;3.60;1.70;;;12.90;70.80;;;;;;5054592;28;20083;-75
2021/03/13 12:02:19;;;;;;;4.68;1.30;;;12.80;68.50;;;;;;5054664;28;20040;-75
2021/03/13 12:04:45;;;;;;;6.97;1.80;;;12.80;69.10;;;;;;5055077;28;20029;-75
2021/03/13 12:07:12;;;;;;;5.43;1.83;;;12.70;70.10;;;;;;5054757;28;20057;-75
2021/03/13 12:09:39;;;;;;;5.03;1.10;;;12.60;69.10;;;;;;5054858;28;20037;-75
2021/03/13 12:12:06;;;;;;;3.38;1.35;;;12.60;71.20;;;;;;5054955;28;20041;-75
2021/03/13 12:14:35;;;;;;;2.95;1.02;;;12.70;70.70;;;;;;5054436;28;20508;-75
2021/03/13 12:17:02;;;;;;;4.25;1.25;;;12.60;68.40;;;;;;5054629;28;20138;-75
2021/03/13 12:19:29;;;;;;;4.50;1.40;;;12.50;70.10;;;;;;5054072;28;20071;-76
2021/03/13 12:21:57;;;;;;;5.82;1.42;;;12.40;69.10;;;;;;5054542;28;20516;-76
2021/03/13 12:24:23;;;;;;;19.50;6.20;;;12.40;70.10;;;;;;5053649;28;20037;-76
2021/03/13 12:26:49;;;;;;;11.57;4.10;;;12.40;68.20;;;;;;5054430;28;20514;-75
2021/03/13 12:29:15;;;;;;;3.97;1.63;;;12.20;65.80;;;;;;5054444;28;20040;-76
2021/03/13 12:31:41;;;;;;;8.98;3.60;;;12.10;65.70;;;;;;5053915;28;20036;-75
2021/03/13 12:34:07;;;;;;;112.03;70.78;;;12.10;67.80;;;;;;5044256;28;20079;-76
2021/03/13 12:36:33;;;;;;;421.85;344.25;;;12.20;66.80;;;;;;5053662;28;20064;-75
2021/03/13 12:38:59;;;;;;;10.98;7.03;;;12.10;66.20;;;;;;5053380;28;20062;-76
2021/03/13 12:41:25;;;;;;;7.32;4.30;;;12.10;67.40;;;;;;5054592;28;20116;-76
2021/03/13 12:43:51;;;;;;;4.00;1.48;;;12.10;68.20;;;;;;5036761;28;20044;-75
2021/03/13 12:46:18;;;;;;;15.32;9.60;;;11.90;69.10;;;;;;5054426;28;20052;-76
2021/03/13 12:48:44;;;;;;;5.30;1.52;;;12.00;70.30;;;;;;5055118;28;20047;-75
2021/03/13 12:51:10;;;;;;;6.40;3.88;;;12.10;69.40;;;;;;5037121;28;20057;-75
2021/03/13 12:53:36;;;;;;;10.05;4.18;;;12.10;68.60;;;;;;5054461;28;20519;-76
2021/03/13 12:56:03;;;;;;;3.38;1.73;;;12.10;69.10;;;;;;5054873;28;20109;-76
2021/03/13 12:58:28;;;;;;;6.85;3.03;;;12.30;66.00;;;;;;5054585;28;20040;-75
2021/03/13 13:00:54;;;;;;;4.18;3.78;;;12.50;64.50;;;;;;5054770;28;20072;-75
2021/03/13 13:03:21;;;;;;;5.03;1.25;;;12.60;63.60;;;;;;5054179;28;20045;-76